createdAt,value
2019-03-31T00:00:13.865Z,100015.00
2019-03-31T00:02:43.415Z,100014.00
2019-03-31T00:05:13.013Z,100008.00
2019-03-31T00:07:42.529Z,100015.00
2019-03-31T00:10:11.837Z,100012.00
2019-03-31T00:12:41.238Z,100009.00
2019-03-31T00:15:10.940Z,100013.00
2019-03-31T00:17:40.860Z,100010.00
2019-03-31T00:20:10.272Z,100013.00
2019-03-31T00:22:39.765Z,100012.00
2019-03-31T00:25:09.183Z,100011.00
2019-03-31T00:27:38.682Z,100014.00
2019-03-31T00:30:08.517Z,100015.00
2019-03-31T00:32:38.055Z,100023.00
2019-03-31T00:35:07.716Z,100003.00
2019-03-31T00:37:37.216Z,100005.00
2019-03-31T00:40:07.961Z,100010.00
2019-03-31T00:42:37.458Z,100007.00
2019-03-31T00:45:07.796Z,100007.00
2019-03-31T00:47:37.306Z,100002.00
2019-03-31T00:50:07.833Z,100006.00
2019-03-31T00:52:37.220Z,100015.00
2019-03-31T00:55:07.243Z,100015.00
2019-03-31T00:57:36.748Z,100010.00
2019-03-31T01:00:09.653Z,100006.00
2019-03-31T01:02:38.945Z,100009.00
2019-03-31T01:05:08.650Z,100019.00
2019-03-31T01:07:38.155Z,100015.00
2019-03-31T01:10:08.061Z,100007.00
2019-03-31T01:12:37.715Z,100013.00
2019-03-31T01:15:11.458Z,100012.00
2019-03-31T01:17:40.989Z,100013.00
2019-03-31T01:20:10.596Z,100008.00
2019-03-31T01:22:40.054Z,100014.00
2019-03-31T01:25:09.622Z,100013.00
2019-03-31T01:27:39.320Z,100002.00
2019-03-31T01:30:10.775Z,100007.00
2019-03-31T01:32:40.384Z,100010.00
2019-03-31T01:35:10.721Z,100007.00
2019-03-31T01:37:40.128Z,100017.00
2019-03-31T01:40:09.930Z,100019.00
2019-03-31T01:42:39.435Z,100013.00
2019-03-31T01:45:10.139Z,100019.00
2019-03-31T01:47:39.687Z,100012.00
2019-03-31T01:50:11.743Z,100024.00
2019-03-31T01:52:41.155Z,100017.00
2019-03-31T01:55:13.635Z,100025.00
2019-03-31T01:57:43.122Z,100018.00
2019-03-31T02:00:20.634Z,100028.00
2019-03-31T02:02:50.125Z,100020.00
2019-03-31T02:05:19.641Z,100014.00
2019-03-31T02:07:49.050Z,100015.00
2019-03-31T02:10:18.863Z,100017.00
2019-03-31T02:12:49.380Z,100012.00
2019-03-31T02:15:18.797Z,100019.00
2019-03-31T02:17:48.097Z,100014.00
2019-03-31T02:20:17.596Z,100016.00
2019-03-31T02:22:47.111Z,100016.00
2019-03-31T02:25:16.714Z,100013.00
2019-03-31T02:27:46.211Z,100019.00
2019-03-31T02:30:16.643Z,100020.00
2019-03-31T02:32:46.065Z,100021.00
2019-03-31T02:35:15.764Z,100016.00
2019-03-31T02:37:45.173Z,100014.00
2019-03-31T02:40:14.669Z,100014.00
2019-03-31T02:42:43.982Z,100020.00
2019-03-31T02:45:13.610Z,100016.00
2019-03-31T02:47:43.084Z,100022.00
2019-03-31T02:50:15.469Z,100024.00
2019-03-31T02:52:44.877Z,100021.00
2019-03-31T02:55:14.264Z,100027.00
2019-03-31T02:57:43.988Z,100015.00
2019-03-31T03:00:13.798Z,100025.00
2019-03-31T03:02:43.408Z,100023.00
2019-03-31T03:05:19.778Z,100029.00
2019-03-31T03:07:46.116Z,100027.00
2019-03-31T03:10:15.309Z,100025.00
2019-03-31T03:12:48.592Z,100020.00
2019-03-31T03:15:32.760Z,100020.00
2019-03-31T03:18:02.055Z,100024.00
2019-03-31T03:20:31.976Z,100024.00
2019-03-31T03:23:01.473Z,100016.00
2019-03-31T03:25:30.973Z,100029.00
2019-03-31T03:28:00.285Z,100027.00
2019-03-31T03:30:29.931Z,100032.00
2019-03-31T03:33:14.788Z,100034.00
2019-03-31T03:35:30.546Z,100036.00
2019-03-31T03:38:00.037Z,100042.00
2019-03-31T03:40:29.266Z,100039.00
2019-03-31T03:42:58.962Z,100042.00
2019-03-31T03:45:28.162Z,100040.00
2019-03-31T03:47:57.654Z,100038.00
2019-03-31T03:50:26.965Z,100038.00
2019-03-31T03:52:56.773Z,100040.00
2019-03-31T03:55:26.281Z,100044.00
2019-03-31T03:57:55.784Z,100045.00
2019-03-31T04:00:25.198Z,100039.00
2019-03-31T04:02:54.698Z,100047.00
2019-03-31T04:05:24.211Z,100041.00
2019-03-31T04:07:53.713Z,100040.00
2019-03-31T04:10:45.650Z,100048.00
2019-03-31T04:13:15.364Z,100045.00
2019-03-31T04:15:44.854Z,100038.00
2019-03-31T04:18:14.169Z,100043.00
2019-03-31T04:20:43.493Z,100044.00
2019-03-31T04:23:12.968Z,100042.00
2019-03-31T04:25:42.177Z,100046.00
2019-03-31T04:28:11.583Z,100047.00
2019-03-31T04:33:16.566Z,100059.00
2019-03-31T04:35:45.776Z,100057.00
2019-03-31T04:38:15.270Z,100059.00
2019-03-31T04:40:45.086Z,100068.00
2019-03-31T04:43:14.592Z,100066.00
2019-03-31T04:45:43.803Z,100073.00
2019-03-31T04:48:13.302Z,100066.00
2019-03-31T04:50:42.812Z,100066.00
2019-03-31T04:53:12.045Z,100074.00
2019-03-31T04:55:41.191Z,100084.00
2019-03-31T04:58:10.706Z,100079.00
2019-03-31T05:00:39.960Z,100080.00
2019-03-31T05:03:09.359Z,100081.00
2019-03-31T05:05:38.803Z,100090.00
2019-03-31T05:08:08.171Z,100087.00
2019-03-31T05:10:37.565Z,100086.00
2019-03-31T05:13:07.178Z,100095.00
2019-03-31T05:15:36.363Z,100096.00
2019-03-31T05:18:05.537Z,100106.00
2019-03-31T05:20:35.044Z,100104.00
2019-03-31T05:23:04.346Z,100107.00
2019-03-31T05:25:34.671Z,100105.00
2019-03-31T05:28:04.064Z,100114.00
2019-03-31T05:30:33.578Z,100119.00
2019-03-31T05:33:02.985Z,100119.00
2019-03-31T05:35:32.390Z,100123.00
2019-03-31T05:38:02.089Z,100122.00
2019-03-31T05:40:31.505Z,100131.00
2019-03-31T05:43:00.996Z,100132.00
2019-03-31T05:45:30.421Z,100128.00
2019-03-31T05:47:59.804Z,100137.00
2019-03-31T05:50:29.128Z,100140.00
2019-03-31T05:52:58.422Z,100138.00
2019-03-31T05:55:27.723Z,100139.00
2019-03-31T05:57:57.113Z,100137.00
2019-03-31T06:00:42.905Z,100143.00
2019-03-31T06:03:12.311Z,100143.00
2019-03-31T06:05:41.727Z,100147.00
2019-03-31T06:08:11.115Z,100149.00
2019-03-31T06:10:40.622Z,100161.00
2019-03-31T06:13:09.937Z,100154.00
2019-03-31T06:15:39.326Z,100162.00
2019-03-31T06:18:08.537Z,100163.00
2019-03-31T06:20:37.719Z,100155.00
2019-03-31T06:23:07.039Z,100172.00
2019-03-31T06:25:36.356Z,100168.00
2019-03-31T06:28:05.835Z,100166.00
2019-03-31T06:30:35.346Z,100175.00
2019-03-31T06:33:04.657Z,100179.00
2019-03-31T06:35:34.184Z,100179.00
2019-03-31T06:38:03.773Z,100189.00
2019-03-31T06:40:35.337Z,100184.00
2019-03-31T06:43:04.831Z,100192.00
2019-03-31T06:45:34.339Z,100196.00
2019-03-31T06:48:03.939Z,100206.00
2019-03-31T06:50:33.144Z,100202.00
2019-03-31T06:53:02.645Z,100217.00
2019-03-31T06:55:32.149Z,100213.00
2019-03-31T06:58:01.435Z,100222.00
2019-03-31T07:00:30.673Z,100227.00
2019-03-31T07:03:00.363Z,100232.00
2019-03-31T07:05:29.762Z,100226.00
2019-03-31T07:07:59.284Z,100235.00
2019-03-31T07:10:28.667Z,100242.00
2019-03-31T07:12:59.816Z,100245.00
2019-03-31T07:15:29.231Z,100244.00
2019-03-31T07:17:58.730Z,100249.00
2019-03-31T07:20:27.890Z,100253.00
2019-03-31T07:22:57.123Z,100250.00
2019-03-31T07:25:26.748Z,100264.00
2019-03-31T07:27:57.868Z,100266.00
2019-03-31T07:30:27.535Z,100260.00
2019-03-31T07:32:57.211Z,100269.00
2019-03-31T07:35:26.734Z,100276.00
2019-03-31T07:37:56.335Z,100275.00
2019-03-31T07:40:25.629Z,100270.00
2019-03-31T07:42:55.179Z,100271.00
2019-03-31T07:45:25.149Z,100272.00
2019-03-31T07:47:54.650Z,100284.00
2019-03-31T07:50:24.060Z,100273.00
2019-03-31T07:52:54.168Z,100287.00
2019-03-31T07:55:24.505Z,100297.00
2019-03-31T07:57:55.046Z,100298.00
2019-03-31T08:00:25.061Z,100306.00
2019-03-31T08:02:54.460Z,100302.00
2019-03-31T08:05:32.890Z,100303.00
2019-03-31T08:07:55.906Z,100302.00
2019-03-31T08:10:25.947Z,100304.00
2019-03-31T08:12:55.440Z,100318.00
2019-03-31T08:15:25.063Z,100318.00
2019-03-31T08:17:54.276Z,100325.00
2019-03-31T08:20:24.297Z,100325.00
2019-03-31T08:22:56.874Z,100333.00
2019-03-31T08:25:24.424Z,100332.00
2019-03-31T08:27:53.925Z,100342.00
2019-03-31T08:30:23.228Z,100349.00
2019-03-31T08:32:52.723Z,100350.00
2019-03-31T08:35:22.235Z,100350.00
2019-03-31T08:37:51.737Z,100359.00
2019-03-31T08:40:22.688Z,100346.00
2019-03-31T08:42:51.991Z,100358.00
2019-03-31T08:45:21.290Z,100363.00
2019-03-31T08:47:52.369Z,100364.00
2019-03-31T08:50:21.943Z,100368.00
2019-03-31T08:52:51.327Z,100382.00
2019-03-31T08:55:20.548Z,100384.00
2019-03-31T08:57:50.209Z,100385.00
2019-03-31T09:00:28.976Z,100388.00
2019-03-31T09:02:58.796Z,100383.00
2019-03-31T09:05:28.287Z,100382.00
2019-03-31T09:07:57.744Z,100391.00
2019-03-31T09:10:27.006Z,100393.00
2019-03-31T09:12:57.148Z,100403.00
2019-03-31T09:15:26.628Z,100397.00
2019-03-31T09:18:00.232Z,100400.00
2019-03-31T09:20:29.737Z,100406.00
2019-03-31T09:22:59.241Z,100409.00
2019-03-31T09:25:28.540Z,100414.00
2019-03-31T09:27:57.851Z,100418.00
2019-03-31T09:30:27.370Z,100417.00
2019-03-31T09:32:56.849Z,100413.00
2019-03-31T09:35:26.162Z,100412.00
2019-03-31T09:37:55.658Z,100408.00
2019-03-31T09:40:25.073Z,100421.00
2019-03-31T09:42:54.279Z,100421.00
2019-03-31T09:45:23.574Z,100424.00
2019-03-31T09:47:52.990Z,100416.00
2019-03-31T09:50:22.574Z,100430.00
2019-03-31T09:52:53.525Z,100420.00
2019-03-31T09:55:23.237Z,100426.00
2019-03-31T09:57:52.850Z,100419.00
2019-03-31T10:00:50.045Z,100425.00
2019-03-31T10:03:24.740Z,100423.00
2019-03-31T10:05:54.225Z,100427.00
2019-03-31T10:08:23.836Z,100429.00
2019-03-31T10:10:53.453Z,100425.00
2019-03-31T10:13:23.055Z,100432.00
2019-03-31T10:15:52.568Z,100426.00
2019-03-31T10:18:22.494Z,100427.00
2019-03-31T10:20:51.919Z,100426.00
2019-03-31T10:23:21.292Z,100432.00
2019-03-31T10:25:51.315Z,100428.00
2019-03-31T10:28:20.848Z,100429.00
2019-03-31T10:30:50.520Z,100431.00
2019-03-31T10:33:20.062Z,100429.00
2019-03-31T10:35:55.650Z,100426.00
2019-03-31T10:38:25.187Z,100426.00
2019-03-31T10:40:54.694Z,100434.00
2019-03-31T10:43:23.962Z,100447.00
2019-03-31T10:45:53.510Z,100442.00
2019-03-31T10:48:23.010Z,100447.00
2019-03-31T10:50:52.509Z,100440.00
2019-03-31T10:53:21.822Z,100439.00
2019-03-31T10:55:51.320Z,100438.00
2019-03-31T10:58:20.826Z,100437.00
2019-03-31T11:00:50.135Z,100446.00
2019-03-31T11:03:19.739Z,100446.00
2019-03-31T11:05:49.243Z,100444.00
2019-03-31T11:08:18.655Z,100449.00
2019-03-31T11:10:48.155Z,100447.00
2019-03-31T11:13:17.569Z,100449.00
2019-03-31T11:15:47.069Z,100452.00
2019-03-31T11:18:16.476Z,100456.00
2019-03-31T11:20:45.793Z,100452.00
2019-03-31T11:23:25.929Z,100446.00
2019-03-31T11:25:55.336Z,100458.00
2019-03-31T11:28:24.739Z,100459.00
2019-03-31T11:30:56.469Z,100459.00
2019-03-31T11:33:26.002Z,100452.00
2019-03-31T11:35:55.307Z,100461.00
2019-03-31T11:38:27.198Z,100464.00
2019-03-31T11:40:56.893Z,100463.00
2019-03-31T11:43:26.282Z,100458.00
2019-03-31T11:45:55.601Z,100459.00
2019-03-31T11:48:24.888Z,100460.00
2019-03-31T11:50:54.604Z,100465.00
2019-03-31T11:53:24.200Z,100467.00
2019-03-31T11:55:53.609Z,100469.00
2019-03-31T11:58:23.334Z,100471.00
2019-03-31T12:00:54.556Z,100475.00
2019-03-31T12:03:24.200Z,100477.00
2019-03-31T12:05:53.788Z,100472.00
2019-03-31T12:08:23.301Z,100474.00
2019-03-31T12:10:53.098Z,100474.00
2019-03-31T12:13:22.616Z,100476.00
2019-03-31T12:15:53.559Z,100467.00
2019-03-31T12:18:23.055Z,100468.00
2019-03-31T12:20:52.465Z,100476.00
2019-03-31T12:23:22.105Z,100466.00
2019-03-31T12:25:53.334Z,100468.00
2019-03-31T12:28:23.029Z,100465.00
2019-03-31T12:30:52.437Z,100460.00
2019-03-31T12:33:21.940Z,100454.00
2019-03-31T12:35:51.545Z,100453.00
2019-03-31T12:38:21.052Z,100442.00
2019-03-31T12:40:57.532Z,100444.00
2019-03-31T12:43:27.039Z,100449.00
2019-03-31T12:45:56.643Z,100443.00
2019-03-31T12:48:26.140Z,100441.00
2019-03-31T12:50:55.548Z,100438.00
2019-03-31T12:53:24.850Z,100448.00
2019-03-31T12:56:00.319Z,100448.00
2019-03-31T12:58:25.599Z,100444.00
2019-03-31T13:00:55.008Z,100446.00
2019-03-31T13:03:32.293Z,100442.00
2019-03-31T13:06:01.797Z,100452.00
2019-03-31T13:08:31.207Z,100437.00
2019-03-31T13:11:00.918Z,100451.00
2019-03-31T13:13:30.461Z,100449.00
2019-03-31T13:15:59.828Z,100449.00
2019-03-31T13:18:29.130Z,100446.00
2019-03-31T13:20:58.739Z,100446.00
2019-03-31T13:23:28.043Z,100440.00
2019-03-31T13:25:57.343Z,100442.00
2019-03-31T13:28:27.147Z,100444.00
2019-03-31T13:30:56.650Z,100448.00
2019-03-31T13:33:26.065Z,100451.00
2019-03-31T13:35:55.275Z,100442.00
2019-03-31T13:38:24.762Z,100447.00
2019-03-31T13:40:54.379Z,100447.00
2019-03-31T13:43:23.783Z,100442.00
2019-03-31T13:45:53.362Z,100440.00
2019-03-31T13:48:22.885Z,100436.00
2019-03-31T13:50:52.402Z,100442.00
2019-03-31T13:53:21.711Z,100438.00
2019-03-31T13:55:51.320Z,100439.00
2019-03-31T13:58:22.945Z,100438.00
2019-03-31T14:00:52.064Z,100439.00
2019-03-31T14:03:21.476Z,100440.00
2019-03-31T14:05:51.184Z,100445.00
2019-03-31T14:08:26.011Z,100437.00
2019-03-31T14:10:51.642Z,100439.00
2019-03-31T14:13:21.134Z,100430.00
2019-03-31T14:15:50.456Z,100435.00
2019-03-31T14:18:19.934Z,100441.00
2019-03-31T14:20:49.141Z,100445.00
2019-03-31T14:23:18.352Z,100446.00
2019-03-31T14:25:47.647Z,100442.00
2019-03-31T14:28:17.053Z,100432.00
2019-03-31T14:30:46.654Z,100430.00
2019-03-31T14:33:16.163Z,100437.00
2019-03-31T14:35:45.677Z,100435.00
2019-03-31T14:38:15.306Z,100435.00
2019-03-31T14:40:44.909Z,100433.00
2019-03-31T14:43:14.488Z,100432.00
2019-03-31T14:45:44.005Z,100440.00
2019-03-31T14:48:14.130Z,100434.00
2019-03-31T14:50:43.428Z,100444.00
2019-03-31T14:53:21.945Z,100435.00
2019-03-31T14:55:51.244Z,100432.00
2019-03-31T14:58:20.659Z,100436.00
2019-03-31T15:00:50.130Z,100433.00
2019-03-31T15:03:19.458Z,100438.00
2019-03-31T15:05:48.863Z,100429.00
2019-03-31T15:08:18.384Z,100440.00
2019-03-31T15:10:47.883Z,100430.00
2019-03-31T15:13:17.380Z,100426.00
2019-03-31T15:15:46.874Z,100444.00
2019-03-31T15:18:17.839Z,100452.00
2019-03-31T15:20:47.037Z,100446.00
2019-03-31T15:23:16.534Z,100448.00
2019-03-31T15:25:48.497Z,100442.00
2019-03-31T15:28:18.399Z,100440.00
2019-03-31T15:30:48.128Z,100443.00
2019-03-31T15:33:17.628Z,100448.00
2019-03-31T15:35:47.129Z,100450.00
2019-03-31T15:38:18.009Z,100449.00
2019-03-31T15:40:48.593Z,100441.00
2019-03-31T15:43:20.364Z,100438.00
2019-03-31T15:45:49.669Z,100445.00
2019-03-31T15:48:18.811Z,100435.00
2019-03-31T15:50:48.036Z,100432.00
2019-03-31T15:53:17.262Z,100440.00
2019-03-31T15:55:46.617Z,100444.00
2019-03-31T15:58:16.074Z,100442.00
2019-03-31T16:00:45.373Z,100434.00
2019-03-31T16:03:14.575Z,100442.00
2019-03-31T16:05:44.069Z,100444.00
2019-03-31T16:08:13.473Z,100445.00
2019-03-31T16:10:42.786Z,100441.00
2019-03-31T16:13:12.393Z,100449.00
2019-03-31T16:15:42.045Z,100441.00
2019-03-31T16:18:11.713Z,100440.00
2019-03-31T16:20:41.121Z,100440.00
2019-03-31T16:23:10.640Z,100441.00
2019-03-31T16:25:42.067Z,100434.00
2019-03-31T16:28:11.479Z,100433.00
2019-03-31T16:30:40.974Z,100445.00
2019-03-31T16:33:10.547Z,100444.00
2019-03-31T16:35:40.010Z,100441.00
2019-03-31T16:38:09.520Z,100442.00
2019-03-31T16:40:39.058Z,100444.00
2019-03-31T16:43:08.562Z,100439.00
2019-03-31T16:45:37.747Z,100445.00
2019-03-31T16:48:07.177Z,100448.00
2019-03-31T16:50:36.753Z,100453.00
2019-03-31T16:53:06.768Z,100437.00
2019-03-31T16:55:36.139Z,100442.00
2019-03-31T16:58:05.614Z,100433.00
2019-03-31T17:00:35.005Z,100440.00
2019-03-31T17:03:04.337Z,100446.00
2019-03-31T17:05:33.546Z,100442.00
2019-03-31T17:08:04.193Z,100446.00
2019-03-31T17:10:33.638Z,100444.00
2019-03-31T17:13:03.097Z,100446.00
2019-03-31T17:15:32.333Z,100445.00
2019-03-31T17:18:01.752Z,100449.00
2019-03-31T17:20:30.923Z,100446.00
2019-03-31T17:23:00.097Z,100451.00
2019-03-31T17:25:29.928Z,100449.00
2019-03-31T17:27:59.432Z,100457.00
2019-03-31T17:30:28.629Z,100455.00
2019-03-31T17:32:58.074Z,100457.00
2019-03-31T17:35:27.489Z,100459.00
2019-03-31T17:37:56.675Z,100464.00
2019-03-31T17:40:26.062Z,100463.00
2019-03-31T17:42:55.583Z,100457.00
2019-03-31T17:45:24.669Z,100460.00
2019-03-31T17:47:53.781Z,100463.00
2019-03-31T17:50:22.901Z,100451.00
2019-03-31T17:52:52.260Z,100450.00
2019-03-31T17:55:21.343Z,100461.00
2019-03-31T17:57:50.737Z,100463.00
2019-03-31T18:00:19.959Z,100469.00
2019-03-31T18:02:49.105Z,100472.00
2019-03-31T18:05:18.434Z,100473.00
2019-03-31T18:07:47.533Z,100476.00
2019-03-31T18:10:21.296Z,100476.00
2019-03-31T18:12:47.833Z,100476.00
2019-03-31T18:15:17.245Z,100471.00
2019-03-31T18:17:46.643Z,100473.00
2019-03-31T18:20:15.768Z,100484.00
2019-03-31T18:22:44.872Z,100480.00
2019-03-31T18:25:13.973Z,100479.00
2019-03-31T18:27:43.379Z,100491.00
2019-03-31T18:30:12.671Z,100485.00
2019-03-31T18:32:41.810Z,100486.00
2019-03-31T18:35:11.419Z,100484.00
2019-03-31T18:37:40.540Z,100496.00
2019-03-31T18:40:09.726Z,100491.00
2019-03-31T18:42:39.102Z,100499.00
2019-03-31T18:45:08.458Z,100499.00
2019-03-31T18:47:37.595Z,100497.00
2019-03-31T18:50:06.969Z,100501.00
2019-03-31T18:52:36.331Z,100506.00
2019-03-31T18:55:08.855Z,100506.00
2019-03-31T18:57:39.828Z,100512.00
2019-03-31T19:00:16.243Z,100521.00
2019-03-31T19:02:49.771Z,100511.00
2019-03-31T19:05:20.666Z,100517.00
2019-03-31T19:08:00.345Z,100524.00
2019-03-31T19:10:49.632Z,100524.00
2019-03-31T19:13:22.141Z,100521.00
2019-03-31T19:15:55.686Z,100530.00
2019-03-31T19:18:44.274Z,100516.00
2019-03-31T19:23:47.469Z,100518.00
2019-03-31T19:26:18.527Z,100533.00
2019-03-31T19:28:49.667Z,100527.00
2019-03-31T19:31:20.737Z,100529.00
2019-03-31T19:34:06.996Z,100531.00
2019-03-31T19:36:46.613Z,100537.00
2019-03-31T19:39:33.373Z,100530.00
2019-03-31T19:42:06.851Z,100544.00
2019-03-31T19:44:50.032Z,100537.00
2019-03-31T19:47:29.494Z,100539.00
2019-03-31T19:50:00.566Z,100546.00
2019-03-31T19:52:40.208Z,100548.00
2019-03-31T19:55:11.446Z,100548.00
2019-03-31T19:57:58.268Z,100552.00
2019-03-31T20:00:35.076Z,100552.00
2019-03-31T20:03:23.898Z,100550.00
2019-03-31T20:06:00.712Z,100549.00
2019-03-31T20:08:34.340Z,100562.00
2019-03-31T20:11:05.389Z,100551.00
2019-03-31T20:13:54.623Z,100552.00
2019-03-31T20:16:28.439Z,100549.00
2019-03-31T20:18:59.467Z,100566.00
2019-03-31T20:21:33.119Z,100560.00
2019-03-31T20:24:06.894Z,100556.00
2019-03-31T20:26:53.091Z,100550.00
2019-03-31T20:29:29.865Z,100554.00
2019-03-31T20:32:09.970Z,100545.00
2019-03-31T20:34:43.671Z,100554.00
2019-03-31T20:37:22.963Z,100559.00
2019-03-31T20:40:09.166Z,100561.00
2019-03-31T20:42:56.577Z,100563.00
2019-03-31T20:45:25.725Z,100570.00
2019-03-31T20:47:54.974Z,100569.00
2019-03-31T20:50:24.379Z,100561.00
2019-03-31T20:52:54.127Z,100568.00
2019-03-31T20:55:23.313Z,100560.00
2019-03-31T20:57:52.812Z,100570.00
2019-03-31T21:00:22.294Z,100577.00
2019-03-31T21:02:51.497Z,100578.00
2019-03-31T21:05:20.994Z,100572.00
2019-03-31T21:07:50.400Z,100586.00
2019-03-31T21:10:19.575Z,100578.00
2019-03-31T21:12:49.017Z,100575.00
2019-03-31T21:15:18.161Z,100583.00
2019-03-31T21:17:47.338Z,100594.00
2019-03-31T21:20:16.725Z,100583.00
2019-03-31T21:22:45.896Z,100587.00
2019-03-31T21:25:15.301Z,100591.00
2019-03-31T21:27:45.084Z,100587.00
2019-03-31T21:30:14.810Z,100591.00
2019-03-31T21:32:44.083Z,100589.00
2019-03-31T21:35:13.632Z,100592.00
2019-03-31T21:37:43.093Z,100592.00
2019-03-31T21:40:12.645Z,100588.00
2019-03-31T21:42:42.390Z,100596.00
2019-03-31T21:45:11.609Z,100598.00
2019-03-31T21:47:40.767Z,100594.00
2019-03-31T21:50:10.289Z,100600.00
2019-03-31T21:52:39.714Z,100591.00
2019-03-31T21:55:09.345Z,100598.00
2019-03-31T21:57:38.503Z,100604.00
2019-03-31T22:00:11.065Z,100606.00
2019-03-31T22:02:40.620Z,100608.00
2019-03-31T22:05:10.315Z,100601.00
2019-03-31T22:07:39.703Z,100595.00
2019-03-31T22:10:09.178Z,100605.00
2019-03-31T22:12:38.321Z,100604.00
2019-03-31T22:15:07.716Z,100608.00
2019-03-31T22:17:36.896Z,100603.00
2019-03-31T22:20:08.156Z,100602.00
2019-03-31T22:22:37.350Z,100604.00
2019-03-31T22:25:07.731Z,100613.00
2019-03-31T22:27:37.142Z,100609.00
2019-03-31T22:30:09.472Z,100614.00
2019-03-31T22:32:38.937Z,100619.00
2019-03-31T22:35:08.288Z,100608.00
2019-03-31T22:37:37.368Z,100610.00
2019-03-31T22:40:07.603Z,100619.00
2019-03-31T22:42:37.031Z,100613.00
2019-03-31T22:45:06.465Z,100612.00
2019-03-31T22:47:35.819Z,100610.00
2019-03-31T22:50:06.101Z,100609.00
2019-03-31T22:52:35.422Z,100610.00
2019-03-31T22:55:06.813Z,100613.00
2019-03-31T22:57:35.924Z,100616.00
2019-03-31T23:00:06.285Z,100608.00
2019-03-31T23:02:35.376Z,100607.00
2019-03-31T23:05:04.746Z,100612.00
2019-03-31T23:07:33.827Z,100604.00
2019-03-31T23:10:03.289Z,100616.00
2019-03-31T23:12:32.619Z,100611.00
2019-03-31T23:15:01.975Z,100617.00
2019-03-31T23:17:31.331Z,100605.00
2019-03-31T23:20:00.723Z,100611.00
2019-03-31T23:22:29.812Z,100609.00
2019-03-31T23:24:59.145Z,100615.00
2019-03-31T23:27:28.501Z,100605.00
2019-03-31T23:29:57.833Z,100611.00
2019-03-31T23:32:27.285Z,100613.00
2019-03-31T23:34:56.640Z,100617.00
2019-03-31T23:37:25.990Z,100606.00
2019-03-31T23:39:55.323Z,100624.00
2019-03-31T23:42:24.450Z,100612.00
2019-03-31T23:44:53.531Z,100598.00
2019-03-31T23:47:22.639Z,100604.00
2019-03-31T23:49:51.722Z,100608.00
2019-03-31T23:52:20.854Z,100607.00
2019-03-31T23:54:49.927Z,100601.00
2019-03-31T23:57:20.703Z,100606.00
2019-03-31T23:59:50.028Z,100599.00
